Terminal Aerodrome Forecast
Issued by NWS Sterling, VA

Home | Current Version | Previous Version | Text Only | Print | Product List | Glossary On
Versions: 1 2 3 4 5 6 7 8 9 10 11 12 13 14 15 16 17 18 19 20 21
555
FTUS41 KLWX 301141
TAFBWI
TAF
KBWI 301141Z 3012/0118 05006KT P6SM OVC015
     FM301600 08009KT P6SM BKN025
     FM302000 09008KT P6SM BKN035
     FM010000 09008KT P6SM FEW040 SCT200
     FM010300 11007KT 5SM BR FEW040 SCT250
     FM010900 18007KT 4SM BR BKN030
     FM011300 20011G18KT P6SM BKN035=

USA.gov is the U.S. government's official web portal to all federal, state and local government web resources and services.